North Berwick, United Kingdom
Current Conditions -  °F | °C
As of 7:50 PM on Sunday 21 Dec 2014 (Local Time) from EGQL Reporting Station
Light Rain Light Rain  
Wind Chill: 52°   Ceiling: 10000
Heat Index: 52°   Visibility: 6mi
Dew Point: 50°   Wind: 26mph
Humidity: 94%   Direction: 250°WSW
Pressure: 29.56"   Gusts: NA
Location:  56.06°N, 2.72°W
Report Text: EGQL 211950Z 25023KT 9999 -RA FEW015 BKN100 11/10 Q1001 BLU
Loading
Personal Weather Stations






























Interactive Weather Map New forecast layout! Learn more

10-Day Weather Forecast

Advertisements
Track Severe Weather on mobile